Time;durP1;ratioP1;P1;durP2;ratioP2;P2;SDS_P1;SDS_P2;PMS_P1;PMS_P2;Temp;Humidity;BMP_temperature;BMP_pressure;BME280_temperature;BME280_humidity;BME280_pressure;Samples;Min_cycle;Max_cycle;Signal;HPM_P1;HPM_P2
2021/01/10 00:01:21;;;;;;;58.90;36.40;;;;;;;-1.81;100.00;102433.59;5036163;28;20049;-64
2021/01/10 00:03:47;;;;;;;61.33;36.30;;;;;;;-1.88;100.00;102421.34;5037494;28;20125;-64
2021/01/10 00:06:13;;;;;;;59.17;35.90;;;;;;;-1.94;100.00;102424.06;5036822;28;20056;-65
2021/01/10 00:08:40;;;;;;;63.67;34.13;;;;;;;-1.91;100.00;102423.13;5035045;28;20053;-65
2021/01/10 00:11:06;;;;;;;63.42;35.22;;;;;;;-1.90;100.00;102427.53;5036267;28;20060;-65
2021/01/10 00:13:32;;;;;;;63.92;38.72;;;;;;;-2.00;100.00;102421.50;5038050;28;20494;-64
2021/01/10 00:15:58;;;;;;;60.80;35.67;;;;;;;-2.01;100.00;102431.16;5039404;28;20041;-65
2021/01/10 00:18:24;;;;;;;63.35;35.78;;;;;;;-1.95;100.00;102427.59;5041437;28;20056;-64
2021/01/10 00:20:50;;;;;;;58.83;37.00;;;;;;;-1.90;100.00;102425.75;5041098;28;20076;-64
2021/01/10 00:23:16;;;;;;;57.03;35.92;;;;;;;-1.98;100.00;102425.84;5039602;28;20045;-64
2021/01/10 00:25:43;;;;;;;56.28;33.70;;;;;;;-1.97;100.00;102419.69;5040457;28;20102;-66
2021/01/10 00:28:09;;;;;;;56.50;34.33;;;;;;;-1.95;100.00;102419.69;5043880;28;20060;-65
2021/01/10 00:30:35;;;;;;;54.95;33.10;;;;;;;-1.99;100.00;102412.69;5041713;28;20125;-65
2021/01/10 00:33:01;;;;;;;57.92;32.45;;;;;;;-1.96;100.00;102417.91;5041308;28;20068;-65
2021/01/10 00:35:27;;;;;;;54.33;31.75;;;;;;;-1.91;100.00;102416.13;5042610;28;20109;-65
2021/01/10 00:37:54;;;;;;;53.97;32.05;;;;;;;-1.94;100.00;102418.78;5039869;28;20049;-65
2021/01/10 00:40:21;;;;;;;51.97;31.35;;;;;;;-2.01;100.00;102419.75;5039121;28;20060;-65
2021/01/10 00:42:48;;;;;;;54.60;32.85;;;;;;;-2.04;100.00;102425.94;5038510;28;20057;-65
2021/01/10 00:45:17;;;;;;;50.97;31.35;;;;;;;-2.05;100.00;102418.91;5037934;28;20053;-65
2021/01/10 00:47:43;;;;;;;48.20;32.03;;;;;;;-2.07;100.00;102419.81;5040815;28;20042;-65
2021/01/10 00:50:10;;;;;;;57.90;31.65;;;;;;;-2.12;100.00;102418.09;5040581;28;20061;-64
2021/01/10 00:52:37;;;;;;;49.10;30.42;;;;;;;-2.02;100.00;102412.72;5043224;28;20067;-66
2021/01/10 00:55:04;;;;;;;43.22;27.95;;;;;;;-2.04;100.00;102420.66;5037066;28;20075;-64
2021/01/10 00:57:29;;;;;;;46.13;29.05;;;;;;;-2.05;100.00;102416.25;5042152;28;20044;-65
2021/01/10 00:59:56;;;;;;;50.05;30.23;;;;;;;-2.16;100.00;102411.09;5040723;28;20061;-65
2021/01/10 01:02:22;;;;;;;48.58;30.83;;;;;;;-2.19;100.00;102420.81;5041001;28;20791;-64
2021/01/10 01:04:48;;;;;;;49.78;29.67;;;;;;;-2.19;100.00;102412.91;5043288;28;20041;-65
2021/01/10 01:07:14;;;;;;;48.05;32.08;;;;;;;-2.23;100.00;102416.47;5042648;28;20049;-65
2021/01/10 01:09:40;;;;;;;53.42;30.88;;;;;;;-2.22;100.00;102415.56;5043247;28;20065;-65
2021/01/10 01:12:07;;;;;;;49.83;29.75;;;;;;;-2.23;100.00;102411.19;5040546;28;20049;-64
2021/01/10 01:14:33;;;;;;;52.65;31.85;;;;;;;-2.22;100.00;102415.56;5042540;28;20049;-64
2021/01/10 01:17:00;;;;;;;52.05;31.15;;;;;;;-2.24;100.00;102423.47;5043261;28;20060;-64
2021/01/10 01:19:26;;;;;;;53.72;33.78;;;;;;;-2.20;100.00;102419.94;5041542;28;20053;-65
2021/01/10 01:21:52;;;;;;;53.45;31.00;;;;;;;-2.24;100.00;102420.84;5041268;28;20049;-65
2021/01/10 01:24:19;;;;;;;54.45;31.00;;;;;;;-2.28;100.00;102427.06;5040435;28;20110;-65
2021/01/10 01:26:46;;;;;;;47.92;29.63;;;;;;;-2.27;100.00;102422.66;5041196;28;20046;-65
2021/01/10 01:29:12;;;;;;;55.33;29.35;;;;;;;-2.35;100.00;102425.38;5040283;28;20050;-65
2021/01/10 01:31:37;;;;;;;53.47;29.83;;;;;;;-2.40;100.00;102428.06;5042637;28;20072;-65
2021/01/10 01:34:04;;;;;;;44.05;28.75;;;;;;;-2.40;100.00;102425.41;5039272;28;20080;-66
2021/01/10 01:36:31;;;;;;;55.35;29.45;;;;;;;-2.38;100.00;102430.69;5039373;28;20063;-64
2021/01/10 01:38:59;;;;;;;42.90;25.95;;;;;;;-2.31;100.00;102429.75;5042765;28;20075;-64
2021/01/10 01:44:09;;;;;;;56.13;31.50;;;;;;;-2.34;100.00;102427.09;4964386;23;20045;-65
2021/01/10 01:46:37;;;;;;;50.75;28.30;;;;;;;-2.16;100.00;102441.91;5060946;28;20056;-66
2021/01/10 01:49:05;;;;;;;50.55;28.88;;;;;;;-2.32;100.00;102427.97;5059994;28;20049;-65
2021/01/10 01:51:32;;;;;;;48.08;27.83;;;;;;;-2.35;100.00;102431.50;5059918;28;20060;-65
2021/01/10 01:53:58;;;;;;;46.92;28.15;;;;;;;-2.41;100.00;102430.72;5057768;28;20048;-66
2021/01/10 01:56:24;;;;;;;48.20;26.23;;;;;;;-2.41;100.00;102430.72;5061138;28;20382;-65
2021/01/10 01:58:59;;;;;;;44.58;27.90;;;;;;;-2.44;100.00;102433.34;5057515;28;20140;-65
2021/01/10 02:01:28;;;;;;;51.72;28.35;;;;;;;-2.50;100.00;102424.63;5060407;28;20102;-64
2021/01/10 02:04:00;;;;;;;41.13;25.63;;;;;;;-2.51;100.00;102420.22;5059383;28;20060;-65
2021/01/10 02:06:33;;;;;;;48.03;26.60;;;;;;;-2.54;100.00;102420.25;5060691;28;20045;-65
2021/01/10 02:09:05;;;;;;;48.00;26.83;;;;;;;-2.58;100.00;102418.53;5061391;28;20052;-64
2021/01/10 02:11:33;;;;;;;53.22;27.83;;;;;;;-2.45;100.00;102423.72;5060148;28;20128;-65
2021/01/10 02:14:03;;;;;;;40.88;26.27;;;;;;;-2.44;100.00;102422.78;5059594;28;20375;-65
2021/01/10 02:16:29;;;;;;;44.25;26.83;;;;;;;-2.42;100.00;102429.81;5059694;28;20178;-66
2021/01/10 02:18:57;;;;;;;48.80;27.40;;;;;;;-2.44;100.00;102417.53;5059440;28;20052;-65
2021/01/10 02:21:24;;;;;;;58.65;27.70;;;;;;;-2.45;100.00;102413.16;5059413;28;20048;-64
2021/01/10 02:23:53;;;;;;;43.42;27.52;;;;;;;-2.46;100.00;102407.00;5059644;28;20563;-65
2021/01/10 02:26:20;;;;;;;49.42;28.73;;;;;;;-2.39;100.00;102405.19;5053341;28;20050;-64
2021/01/10 02:28:46;;;;;;;56.85;31.58;;;;;;;-2.36;100.00;102402.53;5056105;28;20052;-65
2021/01/10 02:31:14;;;;;;;59.10;30.60;;;;;;;-2.38;100.00;102399.03;5050948;28;20713;-64
2021/01/10 02:33:46;;;;;;;51.33;29.77;;;;;;;-2.49;100.00;102397.38;5059370;28;20374;-65
2021/01/10 02:36:27;;;;;;;52.53;31.85;;;;;;;-2.57;100.00;102393.06;5070087;23;20521;-65
2021/01/10 02:38:59;;;;;;;50.15;27.65;;;;;;;-2.58;100.00;102392.16;5039125;28;20056;-65
2021/01/10 02:41:39;;;;;;;47.45;28.45;;;;;;;-2.57;100.00;102388.66;5036096;28;20429;-64
2021/01/10 02:44:16;;;;;;;44.00;25.88;;;;;;;-2.44;100.00;102388.53;5038677;28;20538;-65
2021/01/10 02:46:46;;;;;;;42.92;27.30;;;;;;;-2.52;100.00;102393.88;5037957;28;20048;-65
2021/01/10 02:49:12;;;;;;;44.88;27.15;;;;;;;-2.57;100.00;102393.06;5037787;28;20064;-64
2021/01/10 02:51:38;;;;;;;49.45;27.60;;;;;;;-2.56;100.00;102389.50;5039348;28;20098;-64
2021/01/10 02:54:05;;;;;;;47.08;27.27;;;;;;;-2.55;100.00;102388.63;5037445;28;20046;-65
2021/01/10 02:56:38;;;;;;;46.20;26.85;;;;;;;-2.58;100.00;102392.16;5040210;28;20057;-64
2021/01/10 02:59:05;;;;;;;39.85;26.40;;;;;;;-2.51;100.00;102393.84;5036942;28;20103;-64
2021/01/10 03:01:33;;;;;;;41.05;26.45;;;;;;;-2.48;100.00;102385.91;5038710;28;20055;-64
2021/01/10 03:03:59;;;;;;;43.35;26.98;;;;;;;-2.42;100.00;102377.09;5036075;28;20060;-64
2021/01/10 03:06:26;;;;;;;51.22;28.08;;;;;;;-2.40;100.00;102379.69;5039483;28;20053;-64
2021/01/10 03:08:52;;;;;;;48.78;26.75;;;;;;;-2.36;100.00;102381.41;5038173;28;20060;-64
2021/01/10 03:11:18;;;;;;;44.70;25.63;;;;;;;-2.38;100.00;102367.41;5038893;28;20061;-65
2021/01/10 03:13:46;;;;;;;49.38;27.23;;;;;;;-2.15;100.00;102370.66;5038097;28;20167;-64
2021/01/10 03:16:12;;;;;;;50.25;28.60;;;;;;;-2.25;100.00;102373.38;5039192;28;20061;-65
2021/01/10 03:18:38;;;;;;;40.38;25.05;;;;;;;-2.22;100.00;102366.34;5036634;28;20083;-64
2021/01/10 03:21:05;;;;;;;39.85;27.08;;;;;;;-2.23;100.00;102361.94;5038822;28;20041;-64
2021/01/10 03:23:30;;;;;;;41.35;23.70;;;;;;;-2.22;100.00;102361.06;5037575;28;20049;-65
2021/01/10 03:25:56;;;;;;;41.28;25.17;;;;;;;-2.26;100.00;102366.38;5038214;28;20114;-64
2021/01/10 03:28:22;;;;;;;46.30;25.13;;;;;;;-2.35;100.00;102375.28;5038421;28;20037;-65
2021/01/10 03:30:49;;;;;;;39.55;25.25;;;;;;;-2.36;100.00;102374.38;5038217;28;20697;-65
2021/01/10 03:33:15;;;;;;;45.63;24.52;;;;;;;-2.39;100.00;102377.03;5036782;28;20045;-63
2021/01/10 03:35:41;;;;;;;41.58;25.05;;;;;;;-2.32;100.00;102386.66;5038601;28;20095;-64
2021/01/10 03:38:07;;;;;;;41.55;24.98;;;;;;;-2.34;100.00;102369.09;5036720;28;20049;-64
2021/01/10 03:40:34;;;;;;;43.40;24.83;;;;;;;-2.41;100.00;102377.97;5038703;28;20046;-64
2021/01/10 03:43:00;;;;;;;45.40;25.00;;;;;;;-2.37;100.00;102371.75;5037042;28;20096;-64
2021/01/10 03:45:26;;;;;;;41.42;27.05;;;;;;;-2.35;100.00;102367.38;5036179;28;20134;-65
2021/01/10 03:47:53;;;;;;;41.63;25.67;;;;;;;-2.32;100.00;102376.09;5038698;28;20054;-64
2021/01/10 03:50:19;;;;;;;38.47;23.50;;;;;;;-2.34;100.00;102374.34;5038196;28;20057;-64
2021/01/10 03:52:45;;;;;;;42.60;26.58;;;;;;;-2.22;100.00;102368.06;5041150;28;20053;-64
2021/01/10 03:55:12;;;;;;;39.70;23.63;;;;;;;-2.22;100.00;102368.06;5041645;28;20490;-65
2021/01/10 03:57:38;;;;;;;36.67;24.17;;;;;;;-2.21;100.00;102376.00;5042137;28;20054;-65
2021/01/10 04:00:06;;;;;;;44.58;23.80;;;;;;;-2.14;100.00;102372.38;5037746;28;20492;-66
2021/01/10 04:02:32;;;;;;;37.28;24.10;;;;;;;-2.10;100.00;102369.75;5040267;28;20768;-65
2021/01/10 04:04:59;;;;;;;40.50;24.48;;;;;;;-2.06;100.00;102364.41;5038839;28;20053;-64
2021/01/10 04:07:25;;;;;;;38.33;23.33;;;;;;;-2.05;100.00;102362.63;5041862;28;20049;-64
2021/01/10 04:09:51;;;;;;;43.55;23.90;;;;;;;-2.06;100.00;102363.50;5041406;28;20482;-65
2021/01/10 04:12:17;;;;;;;36.53;24.00;;;;;;;-2.00;100.00;102363.47;5041567;28;20404;-64
2021/01/10 04:14:42;;;;;;;41.22;25.17;;;;;;;-2.01;100.00;102362.56;5042100;28;20073;-65
2021/01/10 04:17:09;;;;;;;42.85;23.00;;;;;;;-1.93;100.00;102362.47;5041250;28;20098;-65
2021/01/10 04:19:34;;;;;;;43.90;24.63;;;;;;;-1.93;100.00;102362.47;5040278;28;20049;-65
2021/01/10 04:22:01;;;;;;;39.25;21.85;;;;;;;-1.97;100.00;102363.41;5041606;28;20079;-64
2021/01/10 04:24:27;;;;;;;39.05;21.65;;;;;;;-2.04;100.00;102367.03;5039705;28;20075;-64
2021/01/10 04:26:53;;;;;;;35.65;22.50;;;;;;;-2.04;100.00;102362.59;5040804;28;20049;-64
2021/01/10 04:29:19;;;;;;;32.85;21.30;;;;;;;-2.01;100.00;102361.72;5041141;28;20061;-64
2021/01/10 04:31:46;;;;;;;41.90;23.27;;;;;;;-1.96;100.00;102349.31;5041523;28;20045;-64
2021/01/10 04:34:12;;;;;;;31.20;20.05;;;;;;;-1.97;100.00;102353.72;5039727;28;20078;-65
2021/01/10 04:36:37;;;;;;;33.63;19.50;;;;;;;-1.92;100.00;102358.09;5041645;28;20080;-64
2021/01/10 04:39:05;;;;;;;37.78;21.58;;;;;;;-1.90;100.00;102348.38;5040108;28;20061;-65
2021/01/10 04:41:33;;;;;;;35.10;20.73;;;;;;;-1.86;100.00;102350.94;5043004;28;20049;-66
2021/01/10 04:43:59;;;;;;;34.33;20.80;;;;;;;-1.84;100.00;102351.81;5040308;28;20061;-64
2021/01/10 04:46:26;;;;;;;34.80;20.17;;;;;;;-1.83;100.00;102348.25;5040347;28;20049;-65
2021/01/10 04:48:54;;;;;;;34.20;21.98;;;;;;;-1.83;100.00;102339.50;5041268;28;20079;-65
2021/01/10 04:51:24;;;;;;;32.30;20.52;;;;;;;-1.84;100.00;102343.00;5041345;28;20049;-65
2021/01/10 04:53:51;;;;;;;33.25;20.33;;;;;;;-1.82;100.00;102336.81;5039181;28;20061;-66
2021/01/10 04:56:18;;;;;;;40.63;20.85;;;;;;;-1.88;100.00;102336.06;5041578;28;20083;-65
2021/01/10 04:58:51;;;;;;;38.67;21.63;;;;;;;-1.88;100.00;102336.91;5040655;28;20128;-65
2021/01/10 05:01:21;;;;;;;35.67;20.10;;;;;;;-1.87;100.00;102337.78;5039806;28;20560;-64
2021/01/10 05:03:46;;;;;;;39.85;20.27;;;;;;;-1.82;100.00;102331.53;5039420;28;20053;-64
2021/01/10 05:06:12;;;;;;;34.17;19.73;;;;;;;-1.83;100.00;102331.56;5040763;28;20498;-64
2021/01/10 05:08:39;;;;;;;37.78;20.83;;;;;;;-1.83;100.00;102329.78;5040554;28;20508;-64
2021/01/10 05:11:05;;;;;;;36.50;19.52;;;;;;;-1.82;100.00;102334.19;5040188;28;20093;-64
2021/01/10 05:13:32;;;;;;;40.15;20.75;;;;;;;-1.85;100.00;102328.94;5039507;28;20641;-65
2021/01/10 05:15:58;;;;;;;46.47;19.83;;;;;;;-1.78;100.00;102324.47;5040320;28;20421;-64
2021/01/10 05:18:24;;;;;;;31.10;18.75;;;;;;;-1.74;100.00;102322.66;5038223;28;20098;-64
2021/01/10 05:20:53;;;;;;;31.95;19.40;;;;;;;-1.69;100.00;102323.44;5041161;28;20397;-63
2021/01/10 05:23:23;;;;;;;34.55;18.95;;;;;;;-1.66;100.00;102316.38;5041508;28;20119;-64
2021/01/10 05:26:11;;;;;;;39.97;19.65;;;;;;;-1.65;100.00;102322.53;5046351;23;20045;-65
2021/01/10 05:28:37;;;;;;;30.60;18.33;;;;;;;-1.72;100.00;102320.84;4995650;28;20058;-65
2021/01/10 05:31:08;;;;;;;40.63;18.73;;;;;;;-1.72;100.00;102321.75;5000299;28;20623;-64
2021/01/10 05:33:47;;;;;;;33.63;18.80;;;;;;;-1.69;100.00;102320.81;5001005;28;20178;-65
2021/01/10 05:36:24;;;;;;;33.33;19.10;;;;;;;-1.65;100.00;102319.88;5000013;28;20065;-63
2021/01/10 05:38:50;;;;;;;33.85;18.70;;;;;;;-1.68;100.00;102323.47;5001006;28;20062;-64
2021/01/10 05:41:17;;;;;;;32.05;18.55;;;;;;;-1.74;100.00;102317.38;5000116;28;20121;-64
2021/01/10 05:43:58;;;;;;;36.05;19.25;;;;;;;-1.73;100.00;102313.84;5000812;28;20045;-64
2021/01/10 05:46:24;;;;;;;37.75;19.50;;;;;;;-1.81;100.00;102317.47;5001443;28;20046;-64
2021/01/10 05:48:50;;;;;;;41.20;19.48;;;;;;;-1.88;100.00;102310.53;5001268;28;20061;-64
2021/01/10 05:51:18;;;;;;;36.88;20.48;;;;;;;-1.83;100.00;102305.19;5000725;28;20503;-65
2021/01/10 05:53:44;;;;;;;33.38;19.70;;;;;;;-1.84;100.00;102306.94;5000122;28;20051;-64
2021/01/10 05:56:10;;;;;;;33.80;19.98;;;;;;;-1.87;100.00;102301.72;5000119;28;20137;-64
2021/01/10 05:58:38;;;;;;;34.47;18.85;;;;;;;-1.90;100.00;102307.00;5000054;28;20058;-65
2021/01/10 06:01:12;;;;;;;34.55;20.52;;;;;;;-1.85;100.00;102313.13;4999220;28;20046;-64
2021/01/10 06:03:38;;;;;;;33.92;19.23;;;;;;;-1.87;100.00;102304.38;4998953;28;20053;-65
2021/01/10 06:06:05;;;;;;;36.67;19.50;;;;;;;-1.98;100.00;102307.13;5000042;28;20054;-64
2021/01/10 06:08:33;;;;;;;32.88;18.20;;;;;;;-1.94;100.00;102305.34;5001918;28;20054;-65
2021/01/10 06:11:24;;;;;;;36.97;19.25;;;;;;;-1.98;100.00;102301.84;5000169;28;20049;-64
2021/01/10 06:13:52;;;;;;;31.10;19.60;;;;;;;-1.96;100.00;102305.34;4999246;28;20050;-65
2021/01/10 06:16:21;;;;;;;35.20;20.23;;;;;;;-2.04;100.00;102299.28;5000157;28;20049;-64
2021/01/10 06:18:49;;;;;;;30.45;17.42;;;;;;;-2.05;100.00;102308.09;5002888;28;20066;-64
2021/01/10 06:21:20;;;;;;;33.58;20.58;;;;;;;-2.05;100.00;102309.88;5054711;23;20057;-64
2021/01/10 06:23:49;;;;;;;35.33;19.98;;;;;;;-2.02;100.00;102312.47;5037902;28;20041;-65
2021/01/10 06:26:17;;;;;;;36.08;19.35;;;;;;;-2.02;100.00;102320.38;5039246;28;20095;-65
2021/01/10 06:28:50;;;;;;;34.13;19.73;;;;;;;-1.99;100.00;102317.69;5039455;28;20045;-64
2021/01/10 06:31:23;;;;;;;38.75;20.10;;;;;;;-1.99;100.00;102313.31;5038706;28;20084;-64
2021/01/10 06:33:56;;;;;;;38.25;20.98;;;;;;;-1.94;100.00;102316.75;5039420;28;20059;-65
2021/01/10 06:36:25;;;;;;;39.83;22.80;;;;;;;-1.87;100.00;102325.47;5039227;28;20103;-64
2021/01/10 06:38:57;;;;;;;35.47;21.53;;;;;;;-1.89;100.00;102329.88;5039043;28;20057;-65
2021/01/10 06:41:53;;;;;;;36.35;21.27;;;;;;;-1.99;100.00;102320.34;5038620;28;20289;-65
2021/01/10 06:44:21;;;;;;;38.63;19.30;;;;;;;-1.97;100.00;102331.75;5038671;28;20067;-65
2021/01/10 06:46:50;;;;;;;34.42;19.60;;;;;;;-1.98;100.00;102330.00;5037432;28;20399;-64
2021/01/10 06:49:16;;;;;;;;;;;;;;;-1.95;100.00;102325.53;5039260;28;20071;-64
2021/01/10 06:51:44;;;;;;;37.83;19.38;;;;;;;-1.99;100.00;102320.34;5040352;28;20336;-65
2021/01/10 06:54:10;;;;;;;39.42;20.23;;;;;;;-2.06;100.00;102327.47;5037971;28;20050;-64
2021/01/10 06:56:37;;;;;;;34.17;20.30;;;;;;;-2.06;100.00;102331.84;5038661;28;20050;-65
2021/01/10 06:59:06;;;;;;;39.65;21.27;;;;;;;-2.07;100.00;102324.84;5038291;28;20041;-64
2021/01/10 07:01:56;;;;;;;;;;;;;;;-2.04;100.00;102330.09;5039415;28;20041;-64
2021/01/10 07:04:25;;;;;;;34.78;21.10;;;;;;;-1.97;100.00;102334.41;5021450;28;19925;-64
2021/01/10 07:09:20;;;;;;;39.65;23.02;;;;;;;-1.89;100.00;102323.75;5043889;22;20041;-65
2021/01/10 07:11:49;;;;;;;38.10;21.08;;;;;;;-1.90;100.00;102329.91;5038324;28;20064;-63
2021/01/10 07:14:26;;;;;;;40.72;20.98;;;;;;;-1.89;100.00;102337.78;5037608;28;20509;-64
2021/01/10 07:17:10;;;;;;;41.67;23.00;;;;;;;-1.90;100.00;102341.31;5039161;28;20053;-65
2021/01/10 07:19:44;;;;;;;38.20;23.08;;;;;;;-1.88;100.00;102342.19;5031984;28;20033;-64
2021/01/10 07:22:28;;;;;;;37.55;22.95;;;;;;;-1.84;100.00;102337.72;5028895;28;20539;-65
2021/01/10 07:24:54;;;;;;;36.88;23.38;;;;;;;-1.82;100.00;102335.97;5029776;28;20053;-64
2021/01/10 07:27:31;;;;;;;50.92;23.98;;;;;;;-1.83;100.00;102343.00;5041193;28;20063;-63
2021/01/10 07:29:58;;;;;;;40.75;25.08;;;;;;;-1.79;100.00;102342.06;5043121;28;20049;-64
2021/01/10 07:32:35;;;;;;;46.08;24.60;;;;;;;-1.71;100.00;102344.59;5042671;28;20049;-65
2021/01/10 07:35:06;;;;;;;41.75;24.83;;;;;;;-1.70;100.00;102335.78;5041962;28;20514;-64
2021/01/10 07:37:33;;;;;;;45.85;26.50;;;;;;;-1.67;100.00;102340.16;5042592;28;20048;-64
2021/01/10 07:40:00;;;;;;;46.63;25.65;;;;;;;-1.68;100.00;102338.41;5040242;28;20037;-63
2021/01/10 07:42:28;;;;;;;47.35;24.98;;;;;;;-1.71;100.00;102339.31;5041359;28;20053;-64
2021/01/10 07:44:55;;;;;;;45.22;26.20;;;;;;;-1.71;100.00;102334.03;5042909;28;20053;-63
2021/01/10 07:47:43;;;;;;;43.08;24.98;;;;;;;-1.64;100.00;102330.41;5040564;28;20053;-64
2021/01/10 07:50:20;;;;;;;43.10;25.45;;;;;;;-1.56;100.00;102332.06;5041800;28;20387;-65
2021/01/10 07:52:54;;;;;;;48.42;26.45;;;;;;;-1.50;100.00;102332.88;5042685;28;20107;-64
2021/01/10 07:55:28;;;;;;;44.42;24.92;;;;;;;-1.47;100.00;102331.97;5033488;28;20051;-64
2021/01/10 07:58:14;;;;;;;45.88;26.67;;;;;;;-1.35;100.00;102333.56;5041114;28;20404;-64
2021/01/10 08:00:50;;;;;;;43.75;25.40;;;;;;;-1.29;100.00;102336.09;5041463;28;20141;-64
2021/01/10 08:03:19;;;;;;;44.22;26.77;;;;;;;-1.17;100.00;102335.03;5040525;28;20052;-63
2021/01/10 08:05:57;;;;;;;45.92;26.30;;;;;;;-1.14;100.00;102341.13;5039625;28;20045;-63
2021/01/10 08:08:41;;;;;;;48.13;26.70;;;;;;;-1.07;100.00;102348.06;5045574;28;20056;-64
2021/01/10 08:11:08;;;;;;;42.55;25.85;;;;;;;-1.13;100.00;102353.44;5061518;28;20504;-64
2021/01/10 08:13:36;;;;;;;39.75;24.85;;;;;;;-1.02;100.00;102350.63;5060710;28;20557;-64
2021/01/10 08:16:05;;;;;;;41.00;25.80;;;;;;;-1.01;100.00;102351.53;5061331;28;20048;-64
2021/01/10 08:18:36;;;;;;;41.65;26.27;;;;;;;-1.03;100.00;102342.72;5060823;28;20108;-64
2021/01/10 08:21:05;;;;;;;43.80;26.92;;;;;;;-1.00;100.00;102347.97;5061324;28;20052;-64
2021/01/10 08:23:32;;;;;;;39.47;26.40;;;;;;;-1.00;100.00;102358.53;5060688;28;20448;-64
2021/01/10 08:26:07;;;;;;;38.45;25.73;;;;;;;-1.00;100.00;102354.13;5062594;28;20098;-63
2021/01/10 08:28:35;;;;;;;52.10;27.35;;;;;;;-0.99;100.00;102350.56;5061537;28;20048;-64
2021/01/10 08:31:03;;;;;;;51.30;28.33;;;;;;;-0.98;100.00;102356.75;5061420;28;20053;-64
2021/01/10 08:33:29;;;;;;;46.38;28.08;;;;;;;-0.91;100.00;102355.75;5060911;28;20041;-65
2021/01/10 08:36:09;;;;;;;47.05;27.90;;;;;;;-0.91;100.00;102353.13;5061902;28;20452;-64
2021/01/10 08:38:36;;;;;;;39.92;26.63;;;;;;;-0.93;100.00;102357.53;5058565;28;20106;-65
2021/01/10 08:41:02;;;;;;;50.03;29.08;;;;;;;-0.91;100.00;102353.97;5061882;28;20365;-64
2021/01/10 08:43:28;;;;;;;43.97;28.02;;;;;;;-0.87;100.00;102362.72;5060893;28;20048;-64
2021/01/10 08:45:54;;;;;;;46.45;26.48;;;;;;;-0.85;100.00;102358.28;5059860;28;20057;-63
2021/01/10 08:48:20;;;;;;;44.55;26.95;;;;;;;-0.85;100.00;102360.03;5060614;28;20447;-64
2021/01/10 08:50:46;;;;;;;44.28;27.02;;;;;;;-0.88;100.00;102361.84;5061546;28;20064;-64
2021/01/10 08:53:12;;;;;;;42.72;26.15;;;;;;;-0.85;100.00;102360.94;5059921;28;20048;-64
2021/01/10 08:55:40;;;;;;;46.58;29.35;;;;;;;-0.85;100.00;102374.16;5059604;28;20056;-64
2021/01/10 08:58:08;;;;;;;46.83;28.25;;;;;;;-0.76;100.00;102366.06;5060959;28;20060;-64
2021/01/10 09:00:35;;;;;;;42.65;29.05;;;;;;;-0.77;100.00;102366.94;5060507;28;20060;-64
2021/01/10 09:03:22;;;;;;;44.97;28.30;;;;;;;-0.76;100.00;102373.13;5062128;28;20112;-64
2021/01/10 09:05:49;;;;;;;44.55;29.08;;;;;;;-0.76;100.00;102374.00;5050717;28;20053;-64
2021/01/10 09:08:38;;;;;;;40.45;26.73;;;;;;;-0.74;100.00;102372.22;5059563;28;20409;-63
2021/01/10 09:11:08;;;;;;;48.58;26.85;;;;;;;-0.78;100.00;102372.25;5061308;28;20615;-64
2021/01/10 09:13:40;;;;;;;45.28;27.52;;;;;;;-0.78;100.00;102372.25;5060304;28;20048;-63
2021/01/10 09:16:11;;;;;;;45.47;28.02;;;;;;;-0.69;100.00;102380.06;5060344;28;20127;-64
2021/01/10 09:18:39;;;;;;;38.80;25.85;;;;;;;-0.67;100.00;102377.38;5060279;28;20167;-64
2021/01/10 09:21:12;;;;;;;41.45;26.75;;;;;;;-0.64;100.00;102377.34;5060618;28;20060;-65
2021/01/10 09:23:39;;;;;;;46.67;28.88;;;;;;;-0.64;100.00;102372.91;5061527;28;20060;-64
2021/01/10 09:26:06;;;;;;;47.80;28.17;;;;;;;-0.55;100.00;102378.03;5059893;28;20139;-65
2021/01/10 09:28:32;;;;;;;45.80;27.73;;;;;;;-0.50;100.00;102370.03;5062041;28;20041;-64
2021/01/10 09:30:58;;;;;;;54.05;26.05;;;;;;;-0.48;100.00;102373.50;5065984;22;20200;-63
2021/01/10 09:33:26;;;;;;;43.90;26.20;;;;;;;-0.46;100.00;102371.69;5020304;28;20076;-64
2021/01/10 09:35:53;;;;;;;40.08;26.77;;;;;;;-0.44;100.00;102374.31;5021608;28;20046;-64
2021/01/10 09:38:21;;;;;;;41.42;26.63;;;;;;;-0.46;100.00;102382.28;5022399;28;20038;-64
2021/01/10 09:43:32;;;;;;;42.47;27.63;;;;;;;-0.46;100.00;102374.34;5052688;22;20049;-64
2021/01/10 09:45:58;;;;;;;38.03;24.88;;;;;;;-0.35;100.00;102379.47;5060731;28;20743;-64
2021/01/10 09:48:26;;;;;;;41.30;25.77;;;;;;;-0.35;100.00;102374.16;5056708;28;20121;-64
2021/01/10 09:50:52;;;;;;;35.47;25.08;;;;;;;-0.34;100.00;102377.69;5058736;28;20569;-64
2021/01/10 09:53:24;;;;;;;45.25;25.30;;;;;;;-0.32;100.00;102379.41;5057629;28;20056;-65
2021/01/10 09:55:50;;;;;;;37.05;23.20;;;;;;;-0.22;100.00;102369.50;5057583;28;20056;-64
2021/01/10 09:58:16;;;;;;;42.53;26.63;;;;;;;-0.21;100.00;102371.25;5057485;28;20052;-64
2021/01/10 10:00:56;;;;;;;37.58;24.15;;;;;;;-0.21;100.00;102377.44;5044769;28;20072;-64
2021/01/10 10:03:23;;;;;;;34.90;25.27;;;;;;;-0.09;100.00;102378.06;5056810;28;20071;-64
2021/01/10 10:05:55;;;;;;;33.55;24.55;;;;;;;0.03;100.00;102374.31;5059200;28;20045;-64
2021/01/10 10:08:21;;;;;;;35.05;22.83;;;;;;;0.13;100.00;102355.59;5063068;28;20114;-64
2021/01/10 10:10:47;;;;;;;37.00;21.05;;;;;;;0.24;100.00;102368.59;5058413;28;20052;-65
2021/01/10 10:13:13;;;;;;;34.38;21.13;;;;;;;0.36;100.00;102356.00;5058801;28;20057;-65
2021/01/10 10:15:41;;;;;;;29.40;18.65;;;;;;;0.43;100.00;102354.97;5057678;28;20067;-64
2021/01/10 10:18:09;;;;;;;28.05;17.55;;;;;;;0.51;99.91;102358.28;5061112;28;20082;-65
2021/01/10 10:20:35;;;;;;;26.88;17.58;;;;;;;0.66;99.88;102357.06;5060031;28;20520;-65
2021/01/10 10:23:08;;;;;;;28.70;17.13;;;;;;;0.78;99.81;102350.63;5059212;28;20048;-65
2021/01/10 10:25:35;;;;;;;29.25;17.50;;;;;;;0.90;99.55;102349.44;5056883;28;20076;-65
2021/01/10 10:28:01;;;;;;;25.42;15.13;;;;;;;0.95;99.25;102343.13;5056995;28;20057;-65
2021/01/10 10:30:27;;;;;;;22.42;14.38;;;;;;;0.92;98.45;102343.22;5057104;28;20060;-64
2021/01/10 10:32:54;;;;;;;24.85;14.30;;;;;;;1.00;98.52;102338.59;5054327;28;20052;-64
2021/01/10 10:35:20;;;;;;;21.50;14.05;;;;;;;1.08;98.28;102337.53;5056242;28;20052;-64
2021/01/10 10:37:47;;;;;;;22.08;13.57;;;;;;;1.15;97.77;102334.69;5059167;28;20052;-64
2021/01/10 10:40:14;;;;;;;19.05;13.18;;;;;;;1.27;97.64;102333.50;5059073;28;20076;-63
2021/01/10 10:42:40;;;;;;;22.85;13.23;;;;;;;1.41;97.10;102335.78;5060346;28;20064;-63
2021/01/10 10:45:07;;;;;;;17.67;11.70;;;;;;;1.51;96.21;102339.94;5059058;28;20052;-63
2021/01/10 10:47:33;;;;;;;16.75;11.77;;;;;;;1.67;96.52;102328.91;5058859;28;22748;-63
2021/01/10 10:49:59;;;;;;;18.92;12.73;;;;;;;1.72;95.50;102332.31;5059210;28;20040;-64
2021/01/10 10:52:26;;;;;;;18.33;11.27;;;;;;;1.81;95.07;102329.41;5057099;28;20105;-63
2021/01/10 10:54:52;;;;;;;17.90;11.02;;;;;;;1.80;95.03;102319.69;5058355;28;20053;-63
2021/01/10 10:57:18;;;;;;;15.77;10.60;;;;;;;1.82;94.09;102328.47;5058499;28;20060;-63
2021/01/10 10:59:44;;;;;;;20.63;10.43;;;;;;;1.85;93.59;102333.69;5058488;28;20060;-64
2021/01/10 11:02:10;;;;;;;15.13;9.75;;;;;;;1.90;94.72;102320.31;5054250;28;20057;-64
2021/01/10 11:04:38;;;;;;;13.88;9.15;;;;;;;1.93;93.76;102317.56;5056151;28;20052;-64
2021/01/10 11:07:04;;;;;;;12.82;8.38;;;;;;;1.97;93.67;102324.50;5056004;28;20080;-64
2021/01/10 11:09:31;;;;;;;19.30;9.90;;;;;;;2.01;94.49;102327.97;5047239;28;20397;-62
2021/01/10 11:11:57;;;;;;;15.68;9.48;;;;;;;2.09;94.03;102320.63;5057325;28;20060;-64
2021/01/10 11:14:23;;;;;;;16.77;8.65;;;;;;;2.18;93.57;102319.47;5055044;28;20056;-64
2021/01/10 11:16:51;;;;;;;15.13;8.95;;;;;;;2.34;94.12;102314.56;5056236;28;20493;-63
2021/01/10 11:19:17;;;;;;;16.40;9.02;;;;;;;2.47;93.50;102315.06;5058035;28;20417;-64